Time;durP1;ratioP1;P1;durP2;ratioP2;P2;SDS_P1;SDS_P2;PMS_P1;PMS_P2;Temp;Humidity;BMP_temperature;BMP_pressure;BME280_temperature;BME280_humidity;BME280_pressure;Samples;Min_cycle;Max_cycle;Signal;HPM_P1;HPM_P2
2024/03/06 00:00:48;;;;;;;20.02;14.60;;;;;;;-146.18;100.00;67994.34;10352287;27;20036;-71
2024/03/06 00:05:45;;;;;;;15.80;12.95;;;;;;;-146.18;100.00;67994.34;10349889;27;20052;-71
2024/03/06 00:10:41;;;;;;;17.48;13.65;;;;;;;-146.18;100.00;67994.34;10352526;27;20052;-71
2024/03/06 00:15:38;;;;;;;16.80;12.82;;;;;;;-146.18;100.00;67994.34;10354165;27;20130;-71
2024/03/06 00:20:34;;;;;;;16.52;12.63;;;;;;;-146.18;100.00;67994.34;10363413;27;20048;-71
2024/03/06 00:25:31;;;;;;;22.92;12.77;;;;;;;-146.18;100.00;67994.34;10351011;27;20048;-72
2024/03/06 00:30:27;;;;;;;13.85;12.20;;;;;;;-146.18;100.00;67994.34;10347194;27;20046;-72
2024/03/06 00:35:24;;;;;;;15.90;13.13;;;;;;;-146.18;100.00;67994.34;10350205;27;20051;-72
2024/03/06 00:40:20;;;;;;;14.45;12.02;;;;;;;-146.18;100.00;67994.34;10351378;27;20465;-71
2024/03/06 00:45:17;;;;;;;16.40;12.43;;;;;;;-146.18;100.00;67994.34;10356188;27;20044;-72
2024/03/06 00:50:13;;;;;;;13.23;11.95;;;;;;;-146.18;100.00;67994.34;10352453;28;20098;-71
2024/03/06 00:55:10;;;;;;;15.95;12.00;;;;;;;-146.18;100.00;67994.34;10350021;27;20032;-72
2024/03/06 01:00:10;;;;;;;13.13;11.77;;;;;;;-146.18;100.00;67994.34;10350906;27;20097;-71
2024/03/06 01:05:09;;;;;;;14.50;12.80;;;;;;;-146.18;100.00;67994.34;10343503;27;20093;-72
2024/03/06 01:10:09;;;;;;;14.13;12.63;;;;;;;-146.18;100.00;67994.34;10352581;27;20055;-71
2024/03/06 01:15:07;;;;;;;16.85;12.25;;;;;;;-146.18;100.00;67994.34;10355125;27;20048;-72
2024/03/06 01:20:06;;;;;;;14.48;12.32;;;;;;;-146.18;100.00;67994.34;10340599;27;20487;-71
2024/03/06 01:25:04;;;;;;;16.30;11.93;;;;;;;-146.18;100.00;67994.34;10350099;28;20118;-72
2024/03/06 01:30:01;;;;;;;16.33;13.02;;;;;;;-146.18;100.00;67994.34;10348983;28;20094;-71
2024/03/06 01:34:57;;;;;;;14.45;13.02;;;;;;;-146.18;100.00;67994.34;10349545;28;20072;-71
2024/03/06 01:39:54;;;;;;;13.68;12.15;;;;;;;-146.18;100.00;67994.34;10360629;27;20136;-71
2024/03/06 01:44:50;;;;;;;17.63;12.25;;;;;;;-146.18;100.00;67994.34;10357623;27;20040;-71
2024/03/06 01:49:47;;;;;;;16.63;12.75;;;;;;;-146.18;100.00;67994.34;10347832;27;20040;-71
2024/03/06 01:54:44;;;;;;;16.65;12.82;;;;;;;-146.18;100.00;67994.34;10355062;27;20047;-71
2024/03/06 01:59:41;;;;;;;14.63;12.43;;;;;;;-146.18;100.00;67994.34;10368481;27;20098;-71
2024/03/06 02:04:38;;;;;;;16.77;12.25;;;;;;;-146.18;100.00;67994.34;10353587;27;20086;-71
2024/03/06 02:09:35;;;;;;;14.02;12.15;;;;;;;-146.18;100.00;67994.34;10354808;27;20513;-72
2024/03/06 02:14:31;;;;;;;13.65;11.90;;;;;;;-146.18;100.00;67994.34;10352237;27;20040;-72
2024/03/06 02:19:42;;;;;;;17.63;12.57;;;;;;;-146.18;100.00;67994.34;10347394;27;20083;-71
2024/03/06 02:24:47;;;;;;;15.77;12.60;;;;;;;-146.18;100.00;67994.34;10352384;28;20048;-72
2024/03/06 02:29:44;;;;;;;15.13;12.25;;;;;;;-146.18;100.00;67994.34;10353807;28;20044;-71
2024/03/06 02:34:40;;;;;;;17.70;12.35;;;;;;;-146.18;100.00;67994.34;10353751;27;20044;-71
2024/03/06 02:39:37;;;;;;;15.85;11.63;;;;;;;-146.18;100.00;67994.34;10347409;27;20396;-71
2024/03/06 02:44:33;;;;;;;13.50;11.60;;;;;;;-146.18;100.00;67994.34;10340995;27;20048;-72
2024/03/06 02:49:30;;;;;;;14.02;11.90;;;;;;;-146.18;100.00;67994.34;10349044;27;20072;-71
2024/03/06 02:54:27;;;;;;;12.35;11.05;;;;;;;-146.18;100.00;67994.34;10350945;27;20040;-71
2024/03/06 02:59:24;;;;;;;14.05;11.57;;;;;;;-146.18;100.00;67994.34;10355499;27;20059;-71
2024/03/06 03:04:20;;;;;;;13.13;11.93;;;;;;;-146.18;100.00;67994.34;10350285;28;20044;-71
2024/03/06 03:09:17;;;;;;;12.93;11.52;;;;;;;-146.18;100.00;67994.34;10354954;27;20040;-71
2024/03/06 03:14:13;;;;;;;14.60;11.18;;;;;;;-146.18;100.00;67994.34;10355391;27;20433;-71
2024/03/06 03:19:10;;;;;;;11.65;10.65;;;;;;;-146.18;100.00;67994.34;10345938;27;20040;-71
2024/03/06 03:24:06;;;;;;;14.00;11.27;;;;;;;-146.18;100.00;67994.34;10346672;27;20039;-71
2024/03/06 03:29:03;;;;;;;14.05;12.05;;;;;;;-146.18;100.00;67994.34;10364636;27;20074;-70
2024/03/06 03:33:59;;;;;;;14.07;12.63;;;;;;;-146.18;100.00;67994.34;10350331;27;20042;-71
2024/03/06 03:38:56;;;;;;;14.68;12.27;;;;;;;-146.18;100.00;67994.34;10356009;27;20046;-71
2024/03/06 03:43:52;;;;;;;14.15;12.75;;;;;;;-146.18;100.00;67994.34;10355237;27;20036;-71
2024/03/06 03:48:49;;;;;;;14.15;12.70;;;;;;;-146.18;100.00;67994.34;10355158;27;20036;-71
2024/03/06 03:53:50;;;;;;;15.20;13.13;;;;;;;-146.18;100.00;67994.34;10354437;27;20109;-71
2024/03/06 03:58:47;;;;;;;15.30;13.90;;;;;;;-146.18;100.00;67994.34;10351829;27;20040;-70
2024/03/06 04:03:44;;;;;;;14.38;13.18;;;;;;;-146.18;100.00;67994.34;10357297;27;20040;-71
2024/03/06 04:08:41;;;;;;;15.35;13.85;;;;;;;-146.18;100.00;67994.34;10346765;27;20434;-71
2024/03/06 04:13:38;;;;;;;15.48;13.90;;;;;;;-146.18;100.00;67994.34;10353158;27;20127;-71
2024/03/06 04:18:35;;;;;;;16.30;14.65;;;;;;;-146.18;100.00;67994.34;10352399;27;20519;-71
2024/03/06 04:23:32;;;;;;;16.58;14.93;;;;;;;-146.18;100.00;67994.34;10352053;27;20089;-71
2024/03/06 04:28:29;;;;;;;16.88;15.38;;;;;;;-146.18;100.00;67994.34;10350504;27;20072;-71
2024/03/06 04:33:26;;;;;;;16.08;14.57;;;;;;;-146.18;100.00;67994.34;10344471;27;20040;-71
2024/03/06 04:38:22;;;;;;;16.55;14.85;;;;;;;-146.18;100.00;67994.34;10356326;27;20515;-70
2024/03/06 04:43:19;;;;;;;15.10;13.90;;;;;;;-146.18;100.00;67994.34;10342680;27;20040;-71
2024/03/06 04:48:16;;;;;;;15.77;14.38;;;;;;;-146.18;100.00;67994.34;10354165;27;20064;-71
2024/03/06 04:53:12;;;;;;;16.70;15.10;;;;;;;-146.18;100.00;67994.34;10350111;27;20046;-70
2024/03/06 04:58:09;;;;;;;16.70;15.20;;;;;;;-146.18;100.00;67994.34;10350567;27;20422;-71
2024/03/06 05:03:06;;;;;;;17.08;15.48;;;;;;;-146.18;100.00;67994.34;10343043;27;20044;-72
2024/03/06 05:08:20;;;;;;;17.23;15.05;;;;;;;-146.18;100.00;67994.34;10351785;27;20043;-72
2024/03/06 05:13:34;;;;;;;16.10;14.80;;;;;;;-146.18;100.00;67994.34;10357667;27;20032;-71
2024/03/06 05:18:49;;;;;;;16.85;15.25;;;;;;;-146.18;100.00;67994.34;10343418;28;20040;-71
2024/03/06 05:24:03;;;;;;;16.88;15.35;;;;;;;-146.18;100.00;67994.34;10339469;28;20040;-71
2024/03/06 05:29:17;;;;;;;17.95;15.43;;;;;;;-146.18;100.00;67994.34;10360434;27;20047;-71
2024/03/06 05:34:32;;;;;;;17.25;15.68;;;;;;;-146.18;100.00;67994.34;10343314;27;20029;-72
2024/03/06 05:39:46;;;;;;;18.30;16.45;;;;;;;-146.18;100.00;67994.34;10350050;27;20044;-71
2024/03/06 05:45:04;;;;;;;18.25;16.55;;;;;;;-146.18;100.00;67994.34;10347115;28;20412;-71
2024/03/06 05:50:18;;;;;;;17.55;16.05;;;;;;;-146.18;100.00;67994.34;10342532;27;20048;-71
2024/03/06 05:55:33;;;;;;;18.25;16.58;;;;;;;-146.18;100.00;67994.34;10347129;27;20039;-71
2024/03/06 06:00:47;;;;;;;18.48;16.80;;;;;;;-146.18;100.00;67994.34;10352970;27;20052;-71
2024/03/06 06:05:44;;;;;;;18.13;16.52;;;;;;;-146.18;100.00;67994.34;10350272;27;20048;-71
2024/03/06 06:10:40;;;;;;;20.08;18.33;;;;;;;-146.18;100.00;67994.34;10347790;27;20483;-71
2024/03/06 06:15:37;;;;;;;17.85;16.35;;;;;;;-146.18;100.00;67994.34;10351514;27;20055;-71
2024/03/06 06:20:33;;;;;;;18.42;16.80;;;;;;;-146.18;100.00;67994.34;10362351;27;20109;-71
2024/03/06 06:25:30;;;;;;;18.98;17.13;;;;;;;-146.18;100.00;67994.34;10364268;27;20550;-71
2024/03/06 06:30:26;;;;;;;20.60;17.10;;;;;;;-146.18;100.00;67994.34;10357251;27;20047;-71
2024/03/06 06:35:25;;;;;;;19.05;17.48;;;;;;;-146.18;100.00;67994.34;10356775;27;20040;-71
2024/03/06 06:40:21;;;;;;;18.88;16.98;;;;;;;-146.18;100.00;67994.34;10345952;28;20055;-71
2024/03/06 06:45:18;;;;;;;18.95;16.88;;;;;;;-146.18;100.00;67994.34;10363367;27;20419;-71
2024/03/06 06:50:16;;;;;;;19.00;17.27;;;;;;;-146.18;100.00;67994.34;10355124;27;20109;-70
2024/03/06 06:55:13;;;;;;;19.17;17.45;;;;;;;-146.18;100.00;67994.34;10355482;27;20617;-70
2024/03/06 07:00:12;;;;;;;19.13;17.33;;;;;;;-146.18;100.00;67994.34;10356031;27;20048;-70
2024/03/06 07:05:10;;;;;;;19.52;17.73;;;;;;;-146.18;100.00;67994.34;10351922;27;20044;-71
2024/03/06 07:10:08;;;;;;;19.52;17.73;;;;;;;-146.18;100.00;67994.34;10355612;27;20058;-70
2024/03/06 07:15:06;;;;;;;20.52;18.38;;;;;;;-146.18;100.00;67994.34;10355206;28;20045;-71
2024/03/06 07:20:04;;;;;;;19.35;17.52;;;;;;;-146.18;100.00;67994.34;10350261;27;20400;-70
2024/03/06 07:25:02;;;;;;;19.40;17.77;;;;;;;-146.18;100.00;67994.34;10362737;28;20044;-71
2024/03/06 07:29:58;;;;;;;19.08;17.10;;;;;;;-146.18;100.00;67994.34;10353120;28;20715;-72
2024/03/06 07:34:55;;;;;;;18.52;16.85;;;;;;;-146.18;100.00;67994.34;10352806;27;20047;-72
2024/03/06 07:39:51;;;;;;;18.73;17.02;;;;;;;-146.18;100.00;67994.34;10352543;27;20048;-70
2024/03/06 07:44:50;;;;;;;19.10;17.33;;;;;;;-146.18;100.00;67994.34;10355879;27;20123;-70
2024/03/06 07:49:46;;;;;;;17.27;15.77;;;;;;;-146.18;100.00;67994.34;10353515;27;20113;-73
2024/03/06 07:54:43;;;;;;;17.90;16.20;;;;;;;-146.18;100.00;67994.34;10357784;27;20042;-71
2024/03/06 07:59:40;;;;;;;16.50;14.95;;;;;;;-146.18;100.00;67994.34;10352759;27;20036;-72
2024/03/06 08:04:36;;;;;;;15.05;13.75;;;;;;;-146.18;100.00;67994.34;10359584;27;20126;-72
2024/03/06 08:09:33;;;;;;;16.80;14.07;;;;;;;-146.18;100.00;67994.34;10352637;27;20036;-72
2024/03/06 08:14:29;;;;;;;15.00;13.50;;;;;;;-146.18;100.00;67994.34;10352529;27;20040;-72
2024/03/06 08:19:26;;;;;;;15.27;13.68;;;;;;;-146.18;100.00;67994.34;10338415;28;20076;-72
2024/03/06 08:24:23;;;;;;;16.23;14.18;;;;;;;-146.18;100.00;67994.34;10353355;27;20062;-72
2024/03/06 08:29:19;;;;;;;15.23;13.77;;;;;;;-146.18;100.00;67994.34;10351728;27;20039;-72
2024/03/06 08:34:16;;;;;;;15.43;14.02;;;;;;;-146.18;100.00;67994.34;10354215;27;20127;-72
2024/03/06 08:39:15;;;;;;;15.88;14.50;;;;;;;-146.18;100.00;67994.34;10355464;27;20465;-72
2024/03/06 08:44:11;;;;;;;15.43;14.02;;;;;;;-146.18;100.00;67994.34;10351362;27;20648;-72
2024/03/06 08:49:08;;;;;;;15.30;13.77;;;;;;;-146.18;100.00;67994.34;10352495;27;20068;-71
2024/03/06 08:54:07;;;;;;;13.80;12.57;;;;;;;-146.18;100.00;67994.34;10352117;27;20044;-73
2024/03/06 08:59:06;;;;;;;15.25;13.75;;;;;;;-146.18;100.00;67994.34;10337292;28;20511;-72
2024/03/06 09:04:03;;;;;;;14.77;13.23;;;;;;;-146.18;100.00;67994.34;10352054;27;20059;-72
2024/03/06 09:08:59;;;;;;;14.00;12.73;;;;;;;-146.18;100.00;67994.34;10362879;27;20187;-72
2024/03/06 09:13:56;;;;;;;13.35;12.25;;;;;;;-146.18;100.00;67994.34;10345366;27;20039;-72
2024/03/06 09:18:52;;;;;;;14.15;12.63;;;;;;;-146.18;100.00;67994.34;10350573;27;20570;-72
2024/03/06 09:23:51;;;;;;;13.13;11.82;;;;;;;-146.18;100.00;67994.34;10357294;27;20040;-72
2024/03/06 09:28:49;;;;;;;13.27;12.05;;;;;;;-146.18;100.00;67994.34;10345897;27;20044;-73
2024/03/06 09:33:46;;;;;;;12.93;11.73;;;;;;;-146.18;100.00;67994.34;10348601;27;20040;-72
2024/03/06 09:38:42;;;;;;;14.07;12.68;;;;;;;-146.18;100.00;67994.34;10344633;27;20042;-72
2024/03/06 09:43:41;;;;;;;14.35;12.73;;;;;;;-146.18;100.00;67994.34;10350231;27;20044;-73
2024/03/06 09:48:46;;;;;;;15.07;13.50;;;;;;;-146.18;100.00;67994.34;10347158;28;20040;-72
2024/03/06 09:53:45;;;;;;;13.98;12.75;;;;;;;-146.18;100.00;67994.34;10368711;27;20052;-72
2024/03/06 09:58:42;;;;;;;14.15;12.80;;;;;;;-146.18;100.00;67994.34;10362157;27;20109;-72
2024/03/06 10:03:40;;;;;;;14.45;13.05;;;;;;;-146.18;100.00;67994.34;10361648;27;20123;-72
2024/03/06 10:08:42;;;;;;;14.75;13.35;;;;;;;-146.18;100.00;67994.34;10360468;27;20047;-71
2024/03/06 10:13:38;;;;;;;15.75;14.35;;;;;;;-146.18;100.00;67994.34;10351488;27;20044;-72
2024/03/06 10:18:36;;;;;;;14.75;13.38;;;;;;;-146.18;100.00;67994.34;10353563;28;20044;-73
2024/03/06 10:23:34;;;;;;;14.32;12.80;;;;;;;-146.18;100.00;67994.34;10368496;27;20126;-72
2024/03/06 10:28:32;;;;;;;17.30;13.30;;;;;;;-146.18;100.00;67994.34;10355820;27;20396;-72
2024/03/06 10:33:29;;;;;;;16.15;13.63;;;;;;;-146.18;100.00;67994.34;10360189;27;20040;-72
2024/03/06 10:38:30;;;;;;;16.10;14.13;;;;;;;-146.18;100.00;67994.34;10355323;28;20087;-72
2024/03/06 10:43:27;;;;;;;19.42;14.45;;;;;;;-146.18;100.00;67994.34;10356708;27;20047;-72
2024/03/06 10:48:27;;;;;;;16.83;13.77;;;;;;;-146.18;100.00;67994.34;10351379;28;20626;-72
2024/03/06 10:53:26;;;;;;;16.52;12.55;;;;;;;-146.18;100.00;67994.34;10357234;27;20067;-73
2024/03/06 10:58:26;;;;;;;14.75;13.25;;;;;;;-146.18;100.00;67994.34;10360578;27;20052;-72
2024/03/06 11:03:24;;;;;;;14.88;12.57;;;;;;;-146.18;100.00;67994.34;10358822;27;20051;-72
2024/03/06 11:08:21;;;;;;;15.95;13.40;;;;;;;-146.18;100.00;67994.34;10355721;27;20113;-72
2024/03/06 11:13:22;;;;;;;17.20;13.25;;;;;;;-146.18;100.00;67994.34;10360294;27;20093;-72
2024/03/06 11:18:28;;;;;;;13.52;12.20;;;;;;;-146.18;100.00;67994.34;10357901;27;20039;-72
2024/03/06 11:23:25;;;;;;;12.55;11.25;;;;;;;-146.18;100.00;67994.34;10355336;27;20086;-70
2024/03/06 11:28:23;;;;;;;13.63;12.23;;;;;;;-146.18;100.00;67994.34;10353289;27;20047;-72
2024/03/06 11:33:20;;;;;;;16.02;12.65;;;;;;;-146.18;100.00;67994.34;10361608;27;20119;-72
2024/03/06 11:38:20;;;;;;;12.75;11.45;;;;;;;-146.18;100.00;67994.34;10354331;28;20130;-73
2024/03/06 11:43:27;;;;;;;13.13;11.77;;;;;;;-146.18;100.00;67994.34;10358668;27;20048;-72
2024/03/06 11:48:24;;;;;;;19.75;11.20;;;;;;;-146.18;100.00;67994.34;10356335;27;20044;-72
2024/03/06 11:53:21;;;;;;;14.18;12.77;;;;;;;-146.18;100.00;67994.34;10358855;27;20120;-71
2024/03/06 11:58:18;;;;;;;18.63;12.95;;;;;;;-146.18;100.00;67994.34;10355155;27;20586;-72
2024/03/06 12:03:14;;;;;;;13.57;11.95;;;;;;;-146.18;100.00;67994.34;10349596;28;20043;-72
2024/03/06 12:08:11;;;;;;;14.10;12.43;;;;;;;-146.18;100.00;67994.34;10357927;27;20036;-72
2024/03/06 12:13:08;;;;;;;20.25;12.23;;;;;;;-146.18;100.00;67994.34;10355400;27;20048;-71
2024/03/06 12:18:05;;;;;;;14.55;11.77;;;;;;;-146.18;100.00;67994.34;10342526;27;20055;-72
2024/03/06 12:23:02;;;;;;;13.35;12.05;;;;;;;-146.18;100.00;67994.34;10351904;27;20051;-72
2024/03/06 12:28:10;;;;;;;13.50;12.13;;;;;;;-146.18;100.00;67994.34;10345402;27;20585;-72
2024/03/06 12:33:06;;;;;;;15.80;11.88;;;;;;;-146.18;100.00;67994.34;10350447;27;20044;-72
2024/03/06 12:38:17;;;;;;;13.27;11.45;;;;;;;-146.18;100.00;67994.34;10351718;28;20137;-73
2024/03/06 12:43:14;;;;;;;13.35;12.13;;;;;;;-146.18;100.00;67994.34;10352663;27;20036;-72
2024/03/06 12:48:12;;;;;;;13.02;11.82;;;;;;;-146.18;100.00;67994.34;10351748;27;20055;-72
2024/03/06 12:53:09;;;;;;;12.63;11.32;;;;;;;-146.18;100.00;67994.34;10351635;27;20067;-72
2024/03/06 12:58:05;;;;;;;13.68;12.07;;;;;;;-146.18;100.00;67994.34;10351373;27;20411;-72
2024/03/06 13:03:02;;;;;;;16.83;12.68;;;;;;;-146.18;100.00;67994.34;10350727;27;20070;-72
2024/03/06 13:08:01;;;;;;;13.30;11.38;;;;;;;-146.18;100.00;67994.34;10350069;27;20129;-71
2024/03/06 13:12:58;;;;;;;14.93;12.25;;;;;;;-146.18;100.00;67994.34;10346135;27;20113;-72
2024/03/06 13:17:54;;;;;;;14.52;11.13;;;;;;;-146.18;100.00;67994.34;10354963;27;20580;-72
2024/03/06 13:22:51;;;;;;;12.63;11.43;;;;;;;-146.18;100.00;67994.34;10350639;27;20041;-72
2024/03/06 13:27:48;;;;;;;12.88;11.48;;;;;;;-146.18;100.00;67994.34;10351683;27;20048;-72
2024/03/06 13:32:47;;;;;;;12.75;10.25;;;;;;;-146.18;100.00;67994.34;10364795;27;20043;-72
2024/03/06 13:37:44;;;;;;;14.18;11.10;;;;;;;-146.18;100.00;67994.34;10358746;27;20527;-72
2024/03/06 13:42:41;;;;;;;11.88;10.77;;;;;;;-146.18;100.00;67994.34;10359521;27;20127;-74
2024/03/06 13:47:41;;;;;;;11.93;10.82;;;;;;;-146.18;100.00;67994.34;10360732;27;20494;-72
2024/03/06 13:52:39;;;;;;;12.50;9.98;;;;;;;-146.18;100.00;67994.34;10367999;27;20044;-72
2024/03/06 13:57:37;;;;;;;10.70;9.63;;;;;;;-146.18;100.00;67994.34;10365568;27;20051;-72
2024/03/06 14:02:33;;;;;;;11.05;9.93;;;;;;;-146.18;100.00;67994.34;10355331;27;20119;-72
2024/03/06 14:07:30;;;;;;;9.95;8.88;;;;;;;-146.18;100.00;67994.34;10363864;27;20451;-70
2024/03/06 14:12:27;;;;;;;11.43;9.68;;;;;;;-146.18;100.00;67994.34;10359188;27;20096;-72
2024/03/06 14:17:24;;;;;;;10.80;9.55;;;;;;;-146.18;100.00;67994.34;10359478;27;20044;-72
2024/03/06 14:22:20;;;;;;;11.32;9.40;;;;;;;-146.18;100.00;67994.34;10356785;27;20072;-72
2024/03/06 14:27:17;;;;;;;10.63;9.52;;;;;;;-146.18;100.00;67994.34;10357219;27;20526;-72
2024/03/06 14:32:14;;;;;;;13.10;9.65;;;;;;;-146.18;100.00;67994.34;10355406;27;20104;-72
2024/03/06 14:37:12;;;;;;;10.60;8.52;;;;;;;-146.18;100.00;67994.34;10354103;28;20039;-72
2024/03/06 14:42:08;;;;;;;10.13;9.13;;;;;;;-146.18;100.00;67994.34;10357091;27;20047;-72
2024/03/06 14:47:05;;;;;;;11.57;9.93;;;;;;;-146.18;100.00;67994.34;10352938;27;20049;-72
2024/03/06 14:52:02;;;;;;;10.57;9.48;;;;;;;-146.18;100.00;67994.34;10361273;27;20043;-72
2024/03/06 14:56:58;;;;;;;9.45;8.52;;;;;;;-146.18;100.00;67994.34;10365689;27;20040;-72
2024/03/06 15:01:56;;;;;;;10.85;9.80;;;;;;;-146.18;100.00;67994.34;10367520;27;20070;-71
2024/03/06 15:06:53;;;;;;;11.82;9.38;;;;;;;-146.18;100.00;67994.34;10355490;27;20050;-71
2024/03/06 15:11:53;;;;;;;10.57;9.35;;;;;;;-146.18;100.00;67994.34;10355126;27;20147;-72
2024/03/06 15:16:50;;;;;;;11.30;9.15;;;;;;;-146.18;100.00;67994.34;10354972;27;20052;-72
2024/03/06 15:21:46;;;;;;;9.18;8.38;;;;;;;-146.18;100.00;67994.34;10357411;27;20047;-71
2024/03/06 15:26:43;;;;;;;9.32;8.43;;;;;;;-146.18;100.00;67994.34;10350591;27;20072;-72
2024/03/06 15:31:39;;;;;;;10.10;9.10;;;;;;;-146.18;100.00;67994.34;10360936;27;20067;-72
2024/03/06 15:36:36;;;;;;;10.77;8.45;;;;;;;-146.18;100.00;67994.34;10365481;27;20051;-72
2024/03/06 15:41:33;;;;;;;9.40;8.02;;;;;;;-146.18;100.00;67994.34;10354200;28;20040;-71
2024/03/06 15:46:31;;;;;;;9.32;8.40;;;;;;;-146.18;100.00;67994.34;10349124;27;20127;-72
2024/03/06 15:51:27;;;;;;;10.25;9.27;;;;;;;-146.18;100.00;67994.34;10344267;27;20040;-71
2024/03/06 15:56:23;;;;;;;10.38;9.25;;;;;;;-146.18;100.00;67994.34;10352735;27;20040;-72
2024/03/06 16:01:20;;;;;;;9.75;8.75;;;;;;;-146.18;100.00;67994.34;10348729;27;20047;-72
2024/03/06 16:06:17;;;;;;;9.50;8.45;;;;;;;-146.18;100.00;67994.34;10354482;27;20040;-72
2024/03/06 16:11:17;;;;;;;10.85;8.52;;;;;;;-146.18;100.00;67994.34;10349671;27;20054;-71
2024/03/06 16:16:13;;;;;;;10.70;9.25;;;;;;;-146.18;100.00;67994.34;10355500;27;20054;-71
2024/03/06 16:21:10;;;;;;;12.38;9.82;;;;;;;-146.18;100.00;67994.34;10354045;27;20044;-72
2024/03/06 16:26:06;;;;;;;8.98;8.07;;;;;;;-146.18;100.00;67994.34;10344369;27;20055;-73
2024/03/06 16:31:03;;;;;;;10.02;8.98;;;;;;;-146.18;100.00;67994.34;10351709;27;20427;-72
2024/03/06 16:36:00;;;;;;;9.40;8.50;;;;;;;-146.18;100.00;67994.34;10349186;27;20039;-72
2024/03/06 16:40:57;;;;;;;10.25;8.55;;;;;;;-146.18;100.00;67994.34;10349577;27;20040;-72
2024/03/06 16:45:54;;;;;;;9.80;8.68;;;;;;;-146.18;100.00;67994.34;10362452;27;20047;-71
2024/03/06 16:50:50;;;;;;;11.65;9.05;;;;;;;-146.18;100.00;67994.34;10355718;27;20059;-71
2024/03/06 16:55:47;;;;;;;10.38;9.25;;;;;;;-146.18;100.00;67994.34;10349793;27;20043;-71
2024/03/06 17:00:43;;;;;;;10.40;9.27;;;;;;;-146.18;100.00;67994.34;10347223;28;20067;-71
2024/03/06 17:05:40;;;;;;;9.77;8.52;;;;;;;-146.18;100.00;67994.34;10346349;27;20535;-71
2024/03/06 17:10:36;;;;;;;10.45;9.45;;;;;;;-146.18;100.00;67994.34;10347809;27;20392;-72
2024/03/06 17:15:33;;;;;;;11.82;9.18;;;;;;;-146.18;100.00;67994.34;10337952;27;20044;-71
2024/03/06 17:20:29;;;;;;;11.93;9.55;;;;;;;-146.18;100.00;67994.34;10354106;27;20044;-71
2024/03/06 17:25:26;;;;;;;11.80;10.23;;;;;;;-146.18;100.00;67994.34;10350592;27;20040;-71
2024/03/06 17:30:22;;;;;;;11.32;9.60;;;;;;;-146.18;100.00;67994.34;10346641;27;20407;-72
2024/03/06 17:35:19;;;;;;;12.07;9.73;;;;;;;-146.18;100.00;67994.34;10340331;27;20543;-71
2024/03/06 17:40:16;;;;;;;12.68;9.45;;;;;;;-146.18;100.00;67994.34;10341897;28;20624;-71
2024/03/06 17:45:12;;;;;;;12.55;9.30;;;;;;;-146.18;100.00;67994.34;10353625;27;20044;-71
2024/03/06 17:50:12;;;;;;;11.48;10.27;;;;;;;-146.18;100.00;67994.34;10339372;28;20044;-71
2024/03/06 17:55:09;;;;;;;11.25;9.88;;;;;;;-146.18;100.00;67994.34;10347070;27;20044;-71
2024/03/06 18:00:09;;;;;;;10.95;9.50;;;;;;;-146.18;100.00;67994.34;10336912;27;20041;-72
2024/03/06 18:05:07;;;;;;;10.23;9.23;;;;;;;-146.18;100.00;67994.34;10340812;27;20933;-71
2024/03/06 18:10:04;;;;;;;10.93;9.85;;;;;;;-146.18;100.00;67994.34;10353316;27;20044;-71
2024/03/06 18:15:01;;;;;;;11.90;9.63;;;;;;;-146.18;100.00;67994.34;10351238;28;20075;-72
2024/03/06 18:19:58;;;;;;;10.43;8.65;;;;;;;-146.18;100.00;67994.34;10346748;28;20060;-72
2024/03/06 18:24:54;;;;;;;9.52;8.52;;;;;;;-146.18;100.00;67994.34;10338172;28;20032;-71
2024/03/06 18:29:51;;;;;;;10.82;9.52;;;;;;;-146.18;100.00;67994.34;10340147;27;20040;-73
2024/03/06 18:34:50;;;;;;;11.02;9.65;;;;;;;-146.18;100.00;67994.34;10345530;27;20044;-72
2024/03/06 18:39:47;;;;;;;11.35;9.60;;;;;;;-146.18;100.00;67994.34;10351965;27;20458;-73
2024/03/06 18:44:43;;;;;;;9.75;8.85;;;;;;;-146.18;100.00;67994.34;10346712;27;20070;-72
2024/03/06 18:49:40;;;;;;;10.75;9.65;;;;;;;-146.18;100.00;67994.34;10353102;28;20042;-72
2024/03/06 18:54:39;;;;;;;10.52;9.38;;;;;;;-146.18;100.00;67994.34;10350782;27;20047;-73
2024/03/06 18:59:37;;;;;;;11.35;10.20;;;;;;;-146.18;100.00;67994.34;10360691;27;20074;-72
2024/03/06 19:04:36;;;;;;;10.88;9.77;;;;;;;-146.18;100.00;67994.34;10354331;27;20032;-72
2024/03/06 19:09:33;;;;;;;11.95;10.75;;;;;;;-146.18;100.00;67994.34;10353482;27;20048;-72
2024/03/06 19:14:30;;;;;;;11.73;9.98;;;;;;;-146.18;100.00;67994.34;10353993;27;20433;-72
2024/03/06 19:19:27;;;;;;;12.00;10.70;;;;;;;-146.18;100.00;67994.34;10352918;27;20044;-72
2024/03/06 19:24:23;;;;;;;12.15;10.95;;;;;;;-146.18;100.00;67994.34;10350055;27;20044;-72
2024/03/06 19:29:23;;;;;;;13.00;11.60;;;;;;;-146.18;100.00;67994.34;10353597;27;20043;-72
2024/03/06 19:34:20;;;;;;;12.05;10.88;;;;;;;-146.18;100.00;67994.34;10341590;27;20044;-71
2024/03/06 19:39:17;;;;;;;14.13;12.30;;;;;;;-146.18;100.00;67994.34;10346276;27;20051;-71
2024/03/06 19:44:13;;;;;;;13.63;12.10;;;;;;;-146.18;100.00;67994.34;10352674;27;20047;-71
2024/03/06 19:49:10;;;;;;;16.20;13.02;;;;;;;-146.18;100.00;67994.34;10350138;27;20044;-72
2024/03/06 19:54:06;;;;;;;14.32;13.00;;;;;;;-146.18;100.00;67994.34;10358532;27;20048;-72
2024/03/06 19:59:04;;;;;;;17.58;13.68;;;;;;;-146.18;100.00;67994.34;10351228;27;20040;-72
2024/03/06 20:04:00;;;;;;;21.20;13.40;;;;;;;-146.18;100.00;67994.34;10346246;27;20139;-71
2024/03/06 20:08:58;;;;;;;17.88;14.70;;;;;;;-146.18;100.00;67994.34;10349912;27;20109;-71
2024/03/06 20:13:55;;;;;;;17.38;14.25;;;;;;;-146.18;100.00;67994.34;10354679;27;20423;-71
2024/03/06 20:18:51;;;;;;;17.45;15.40;;;;;;;-146.18;100.00;67994.34;10353047;27;20055;-72
2024/03/06 20:23:49;;;;;;;17.42;14.52;;;;;;;-146.18;100.00;67994.34;10354357;27;20416;-71
2024/03/06 20:28:48;;;;;;;19.23;16.48;;;;;;;-146.18;100.00;67994.34;10351099;27;20123;-71
2024/03/06 20:33:45;;;;;;;17.00;15.20;;;;;;;-146.18;100.00;67994.34;10355027;27;20052;-71
2024/03/06 20:38:42;;;;;;;19.55;17.52;;;;;;;-146.18;100.00;67994.34;10348008;27;20502;-71
2024/03/06 20:43:39;;;;;;;20.75;16.58;;;;;;;-146.18;100.00;67994.34;10345915;27;20127;-71
2024/03/06 20:48:36;;;;;;;19.65;16.92;;;;;;;-146.18;100.00;67994.34;10354230;27;20051;-72
2024/03/06 20:53:33;;;;;;;22.13;18.08;;;;;;;-146.18;100.00;67994.34;10346915;27;20507;-71
2024/03/06 20:58:29;;;;;;;23.88;19.52;;;;;;;-146.18;100.00;67994.34;10354336;27;20047;-71
2024/03/06 21:03:26;;;;;;;22.23;19.17;;;;;;;-146.18;100.00;67994.34;10344403;27;20400;-71
2024/03/06 21:08:22;;;;;;;30.88;20.17;;;;;;;-146.18;100.00;67994.34;10342465;27;20516;-71
2024/03/06 21:13:19;;;;;;;26.55;20.20;;;;;;;-146.18;100.00;67994.34;10351194;27;20465;-71
2024/03/06 21:18:15;;;;;;;29.98;21.98;;;;;;;-146.18;100.00;67994.34;10332337;28;20036;-71
2024/03/06 21:23:12;;;;;;;31.25;22.65;;;;;;;-146.18;100.00;67994.34;10349143;27;20063;-71
2024/03/06 21:28:08;;;;;;;33.40;23.85;;;;;;;-146.18;100.00;67994.34;10344521;28;20051;-72
2024/03/06 21:33:05;;;;;;;35.40;23.13;;;;;;;-146.18;100.00;67994.34;10344321;27;20071;-71
2024/03/06 21:38:02;;;;;;;35.05;24.42;;;;;;;-146.18;100.00;67994.34;10349121;27;20047;-71
2024/03/06 21:42:58;;;;;;;41.97;25.65;;;;;;;-146.18;100.00;67994.34;10348246;27;20040;-72
2024/03/06 21:47:56;;;;;;;37.03;27.30;;;;;;;-146.18;100.00;67994.34;10354427;27;20105;-71
2024/03/06 21:52:53;;;;;;;35.08;26.38;;;;;;;-146.18;100.00;67994.34;10355682;27;20135;-72